<?xml version="1.0" encoding="UTF-8" standalone="no" ?>
<gpx xmlns="http://www.topografix.com/GPX/1/1" xmlns:xsi="http://www.w3.org/2001/XMLSchema-instance" xsi:schemaLocation="http://www.topografix.com/GPX/1/1 http://www.topografix.com/GPX/1/1/gpx.xsd" version="1.1" creator="VisuGPX - https://www.visugpx.com">
  <metadata>
    <name>TELETHON 2025 VTT 20KM</name>
  </metadata>
  <trk>
    <name><![CDATA[Parcours VTT 20KM TELETHON 2025-22666086]]></name>
    <trkseg>
      <trkpt lat="45.96883" lon="2.87869">
        <ele>724</ele>
        <time>2025-10-12T07:53:12Z</time>
      </trkpt>
      <trkpt lat="45.96872" lon="2.87813">
        <ele>722</ele>
        <time>2025-10-12T07:53:21Z</time>
      </trkpt>
      <trkpt lat="45.96866" lon="2.87718">
        <ele>720</ele>
        <time>2025-10-12T07:53:37Z</time>
      </trkpt>
      <trkpt lat="45.96814" lon="2.87768">
        <ele>717</ele>
        <time>2025-10-12T07:53:52Z</time>
      </trkpt>
      <trkpt lat="45.968" lon="2.87796">
        <ele>715</ele>
        <time>2025-10-12T07:53:57Z</time>
      </trkpt>
      <trkpt lat="45.96738" lon="2.88046">
        <ele>719</ele>
        <time>2025-10-12T07:54:40Z</time>
      </trkpt>
      <trkpt lat="45.96677" lon="2.88131">
        <ele>718</ele>
        <time>2025-10-12T07:55:00Z</time>
      </trkpt>
      <trkpt lat="45.96612" lon="2.88134">
        <ele>720</ele>
        <time>2025-10-12T07:55:15Z</time>
      </trkpt>
      <trkpt lat="45.96587" lon="2.88155">
        <ele>722</ele>
        <time>2025-10-12T07:55:22Z</time>
      </trkpt>
      <trkpt lat="45.9657" lon="2.88238">
        <ele>724</ele>
        <time>2025-10-12T07:55:36Z</time>
      </trkpt>
      <trkpt lat="45.96557" lon="2.88256">
        <ele>726</ele>
        <time>2025-10-12T07:55:40Z</time>
      </trkpt>
      <trkpt lat="45.9649" lon="2.88287">
        <ele>730</ele>
        <time>2025-10-12T07:55:57Z</time>
      </trkpt>
      <trkpt lat="45.96418" lon="2.88355">
        <ele>728</ele>
        <time>2025-10-12T07:56:17Z</time>
      </trkpt>
      <trkpt lat="45.9636" lon="2.88384">
        <ele>729</ele>
        <time>2025-10-12T07:56:31Z</time>
      </trkpt>
      <trkpt lat="45.96349" lon="2.88388">
        <ele>728</ele>
        <time>2025-10-12T07:56:34Z</time>
      </trkpt>
      <trkpt lat="45.96251" lon="2.8838">
        <ele>728</ele>
        <time>2025-10-12T07:56:57Z</time>
      </trkpt>
      <trkpt lat="45.96233" lon="2.88366">
        <ele>728</ele>
        <time>2025-10-12T07:57:01Z</time>
      </trkpt>
      <trkpt lat="45.96176" lon="2.88302">
        <ele>726</ele>
        <time>2025-10-12T07:57:18Z</time>
      </trkpt>
      <trkpt lat="45.96155" lon="2.88265">
        <ele>726</ele>
        <time>2025-10-12T07:57:26Z</time>
      </trkpt>
      <trkpt lat="45.96134" lon="2.88215">
        <ele>726</ele>
        <time>2025-10-12T07:57:36Z</time>
      </trkpt>
      <trkpt lat="45.96103" lon="2.88132">
        <ele>728</ele>
        <time>2025-10-12T07:57:51Z</time>
      </trkpt>
      <trkpt lat="45.96069" lon="2.87963">
        <ele>732</ele>
        <time>2025-10-12T07:58:19Z</time>
      </trkpt>
      <trkpt lat="45.96021" lon="2.87816">
        <ele>741</ele>
        <time>2025-10-12T07:58:46Z</time>
      </trkpt>
      <trkpt lat="45.96016" lon="2.87787">
        <ele>743</ele>
        <time>2025-10-12T07:58:51Z</time>
      </trkpt>
      <trkpt lat="45.9602" lon="2.87776">
        <ele>743</ele>
        <time>2025-10-12T07:58:53Z</time>
      </trkpt>
      <trkpt lat="45.96027" lon="2.8777">
        <ele>743</ele>
        <time>2025-10-12T07:58:55Z</time>
      </trkpt>
      <trkpt lat="45.96129" lon="2.87745">
        <ele>738</ele>
        <time>2025-10-12T07:59:19Z</time>
      </trkpt>
      <trkpt lat="45.96152" lon="2.87734">
        <ele>736</ele>
        <time>2025-10-12T07:59:24Z</time>
      </trkpt>
      <trkpt lat="45.96165" lon="2.87719">
        <ele>735</ele>
        <time>2025-10-12T07:59:28Z</time>
      </trkpt>
      <trkpt lat="45.96171" lon="2.87699">
        <ele>734</ele>
        <time>2025-10-12T07:59:32Z</time>
      </trkpt>
      <trkpt lat="45.96169" lon="2.87586">
        <ele>734</ele>
        <time>2025-10-12T07:59:50Z</time>
      </trkpt>
      <trkpt lat="45.96181" lon="2.87462">
        <ele>732</ele>
        <time>2025-10-12T08:00:11Z</time>
      </trkpt>
      <trkpt lat="45.96181" lon="2.87446">
        <ele>733</ele>
        <time>2025-10-12T08:00:13Z</time>
      </trkpt>
      <trkpt lat="45.96175" lon="2.87435">
        <ele>734</ele>
        <time>2025-10-12T08:00:15Z</time>
      </trkpt>
      <trkpt lat="45.96122" lon="2.87428">
        <ele>734</ele>
        <time>2025-10-12T08:00:28Z</time>
      </trkpt>
      <trkpt lat="45.9606" lon="2.8743">
        <ele>732</ele>
        <time>2025-10-12T08:00:42Z</time>
      </trkpt>
      <trkpt lat="45.96011" lon="2.87426">
        <ele>729</ele>
        <time>2025-10-12T08:00:54Z</time>
      </trkpt>
      <trkpt lat="45.9597" lon="2.8744">
        <ele>730</ele>
        <time>2025-10-12T08:01:04Z</time>
      </trkpt>
      <trkpt lat="45.95934" lon="2.8747">
        <ele>731</ele>
        <time>2025-10-12T08:01:13Z</time>
      </trkpt>
      <trkpt lat="45.95916" lon="2.87475">
        <ele>732</ele>
        <time>2025-10-12T08:01:18Z</time>
      </trkpt>
      <trkpt lat="45.95874" lon="2.8746">
        <ele>733</ele>
        <time>2025-10-12T08:01:28Z</time>
      </trkpt>
      <trkpt lat="45.95843" lon="2.87454">
        <ele>734</ele>
        <time>2025-10-12T08:01:35Z</time>
      </trkpt>
      <trkpt lat="45.95788" lon="2.87456">
        <ele>737</ele>
        <time>2025-10-12T08:01:48Z</time>
      </trkpt>
      <trkpt lat="45.95766" lon="2.87446">
        <ele>738</ele>
        <time>2025-10-12T08:01:53Z</time>
      </trkpt>
      <trkpt lat="45.957" lon="2.87404">
        <ele>740</ele>
        <time>2025-10-12T08:02:10Z</time>
      </trkpt>
      <trkpt lat="45.95671" lon="2.87393">
        <ele>741</ele>
        <time>2025-10-12T08:02:17Z</time>
      </trkpt>
      <trkpt lat="45.9557" lon="2.87367">
        <ele>745</ele>
        <time>2025-10-12T08:02:41Z</time>
      </trkpt>
      <trkpt lat="45.95504" lon="2.87356">
        <ele>747</ele>
        <time>2025-10-12T08:02:57Z</time>
      </trkpt>
      <trkpt lat="45.9545" lon="2.87355">
        <ele>746</ele>
        <time>2025-10-12T08:03:09Z</time>
      </trkpt>
      <trkpt lat="45.95376" lon="2.87362">
        <ele>746</ele>
        <time>2025-10-12T08:03:27Z</time>
      </trkpt>
      <trkpt lat="45.95237" lon="2.87392">
        <ele>748</ele>
        <time>2025-10-12T08:03:59Z</time>
      </trkpt>
      <trkpt lat="45.95224" lon="2.87392">
        <ele>748</ele>
        <time>2025-10-12T08:04:02Z</time>
      </trkpt>
      <trkpt lat="45.95205" lon="2.8738">
        <ele>747</ele>
        <time>2025-10-12T08:04:07Z</time>
      </trkpt>
      <trkpt lat="45.95132" lon="2.87316">
        <ele>745</ele>
        <time>2025-10-12T08:04:27Z</time>
      </trkpt>
      <trkpt lat="45.95094" lon="2.87275">
        <ele>745</ele>
        <time>2025-10-12T08:04:38Z</time>
      </trkpt>
      <trkpt lat="45.95089" lon="2.87254">
        <ele>745</ele>
        <time>2025-10-12T08:04:42Z</time>
      </trkpt>
      <trkpt lat="45.9511" lon="2.87212">
        <ele>743</ele>
        <time>2025-10-12T08:04:50Z</time>
      </trkpt>
      <trkpt lat="45.95121" lon="2.87199">
        <ele>743</ele>
        <time>2025-10-12T08:04:54Z</time>
      </trkpt>
      <trkpt lat="45.95149" lon="2.87182">
        <ele>742</ele>
        <time>2025-10-12T08:05:01Z</time>
      </trkpt>
      <trkpt lat="45.95177" lon="2.87153">
        <ele>744</ele>
        <time>2025-10-12T08:05:09Z</time>
      </trkpt>
      <trkpt lat="45.9523" lon="2.87071">
        <ele>748</ele>
        <time>2025-10-12T08:05:27Z</time>
      </trkpt>
      <trkpt lat="45.95265" lon="2.87003">
        <ele>746</ele>
        <time>2025-10-12T08:05:41Z</time>
      </trkpt>
      <trkpt lat="45.95276" lon="2.86969">
        <ele>744</ele>
        <time>2025-10-12T08:05:47Z</time>
      </trkpt>
      <trkpt lat="45.95287" lon="2.8691">
        <ele>743</ele>
        <time>2025-10-12T08:05:57Z</time>
      </trkpt>
      <trkpt lat="45.95293" lon="2.86758">
        <ele>731</ele>
        <time>2025-10-12T08:06:21Z</time>
      </trkpt>
      <trkpt lat="45.95295" lon="2.86734">
        <ele>729</ele>
        <time>2025-10-12T08:06:25Z</time>
      </trkpt>
      <trkpt lat="45.95339" lon="2.86749">
        <ele>727</ele>
        <time>2025-10-12T08:06:36Z</time>
      </trkpt>
      <trkpt lat="45.9539" lon="2.8678">
        <ele>728</ele>
        <time>2025-10-12T08:06:49Z</time>
      </trkpt>
      <trkpt lat="45.95413" lon="2.86782">
        <ele>727</ele>
        <time>2025-10-12T08:06:54Z</time>
      </trkpt>
      <trkpt lat="45.95442" lon="2.86765">
        <ele>727</ele>
        <time>2025-10-12T08:07:02Z</time>
      </trkpt>
      <trkpt lat="45.95554" lon="2.86742">
        <ele>729</ele>
        <time>2025-10-12T08:07:28Z</time>
      </trkpt>
      <trkpt lat="45.95665" lon="2.8666">
        <ele>732</ele>
        <time>2025-10-12T08:07:57Z</time>
      </trkpt>
      <trkpt lat="45.95667" lon="2.86649">
        <ele>732</ele>
        <time>2025-10-12T08:07:59Z</time>
      </trkpt>
      <trkpt lat="45.95589" lon="2.86498">
        <ele>730</ele>
        <time>2025-10-12T08:08:29Z</time>
      </trkpt>
      <trkpt lat="45.95533" lon="2.86417">
        <ele>733</ele>
        <time>2025-10-12T08:08:48Z</time>
      </trkpt>
      <trkpt lat="45.95533" lon="2.864">
        <ele>733</ele>
        <time>2025-10-12T08:08:51Z</time>
      </trkpt>
      <trkpt lat="45.95541" lon="2.86375">
        <ele>733</ele>
        <time>2025-10-12T08:08:55Z</time>
      </trkpt>
      <trkpt lat="45.95598" lon="2.86371">
        <ele>732</ele>
        <time>2025-10-12T08:09:09Z</time>
      </trkpt>
      <trkpt lat="45.95671" lon="2.8634">
        <ele>727</ele>
        <time>2025-10-12T08:09:26Z</time>
      </trkpt>
      <trkpt lat="45.95689" lon="2.86337">
        <ele>725</ele>
        <time>2025-10-12T08:09:31Z</time>
      </trkpt>
      <trkpt lat="45.95831" lon="2.86336">
        <ele>715</ele>
        <time>2025-10-12T08:10:04Z</time>
      </trkpt>
      <trkpt lat="45.95908" lon="2.8633">
        <ele>713</ele>
        <time>2025-10-12T08:10:22Z</time>
      </trkpt>
      <trkpt lat="45.95964" lon="2.86344">
        <ele>712</ele>
        <time>2025-10-12T08:10:35Z</time>
      </trkpt>
      <trkpt lat="45.95987" lon="2.86341">
        <ele>712</ele>
        <time>2025-10-12T08:10:40Z</time>
      </trkpt>
      <trkpt lat="45.96139" lon="2.8628">
        <ele>724</ele>
        <time>2025-10-12T08:11:17Z</time>
      </trkpt>
      <trkpt lat="45.96171" lon="2.86273">
        <ele>724</ele>
        <time>2025-10-12T08:11:25Z</time>
      </trkpt>
      <trkpt lat="45.96222" lon="2.86269">
        <ele>721</ele>
        <time>2025-10-12T08:11:37Z</time>
      </trkpt>
      <trkpt lat="45.96252" lon="2.86247">
        <ele>721</ele>
        <time>2025-10-12T08:11:45Z</time>
      </trkpt>
      <trkpt lat="45.96284" lon="2.86199">
        <ele>719</ele>
        <time>2025-10-12T08:11:55Z</time>
      </trkpt>
      <trkpt lat="45.96317" lon="2.86139">
        <ele>715</ele>
        <time>2025-10-12T08:12:08Z</time>
      </trkpt>
      <trkpt lat="45.96321" lon="2.86124">
        <ele>715</ele>
        <time>2025-10-12T08:12:10Z</time>
      </trkpt>
      <trkpt lat="45.9632" lon="2.86108">
        <ele>716</ele>
        <time>2025-10-12T08:12:13Z</time>
      </trkpt>
      <trkpt lat="45.96297" lon="2.86061">
        <ele>719</ele>
        <time>2025-10-12T08:12:22Z</time>
      </trkpt>
      <trkpt lat="45.9627" lon="2.86033">
        <ele>721</ele>
        <time>2025-10-12T08:12:30Z</time>
      </trkpt>
      <trkpt lat="45.96217" lon="2.85965">
        <ele>717</ele>
        <time>2025-10-12T08:12:47Z</time>
      </trkpt>
      <trkpt lat="45.96181" lon="2.85954">
        <ele>717</ele>
        <time>2025-10-12T08:12:55Z</time>
      </trkpt>
      <trkpt lat="45.96082" lon="2.85944">
        <ele>718</ele>
        <time>2025-10-12T08:13:19Z</time>
      </trkpt>
      <trkpt lat="45.9604" lon="2.85926">
        <ele>717</ele>
        <time>2025-10-12T08:13:29Z</time>
      </trkpt>
      <trkpt lat="45.96015" lon="2.85907">
        <ele>718</ele>
        <time>2025-10-12T08:13:35Z</time>
      </trkpt>
      <trkpt lat="45.95995" lon="2.85845">
        <ele>720</ele>
        <time>2025-10-12T08:13:46Z</time>
      </trkpt>
      <trkpt lat="45.95997" lon="2.85741">
        <ele>720</ele>
        <time>2025-10-12T08:14:03Z</time>
      </trkpt>
      <trkpt lat="45.96005" lon="2.85713">
        <ele>720</ele>
        <time>2025-10-12T08:14:08Z</time>
      </trkpt>
      <trkpt lat="45.9602" lon="2.8569">
        <ele>720</ele>
        <time>2025-10-12T08:14:13Z</time>
      </trkpt>
      <trkpt lat="45.96026" lon="2.85664">
        <ele>720</ele>
        <time>2025-10-12T08:14:18Z</time>
      </trkpt>
      <trkpt lat="45.96052" lon="2.85443">
        <ele>723</ele>
        <time>2025-10-12T08:14:54Z</time>
      </trkpt>
      <trkpt lat="45.96043" lon="2.85414">
        <ele>721</ele>
        <time>2025-10-12T08:14:59Z</time>
      </trkpt>
      <trkpt lat="45.95953" lon="2.85308">
        <ele>716</ele>
        <time>2025-10-12T08:15:27Z</time>
      </trkpt>
      <trkpt lat="45.95954" lon="2.85277">
        <ele>714</ele>
        <time>2025-10-12T08:15:32Z</time>
      </trkpt>
      <trkpt lat="45.95971" lon="2.85235">
        <ele>712</ele>
        <time>2025-10-12T08:15:39Z</time>
      </trkpt>
      <trkpt lat="45.95955" lon="2.8515">
        <ele>715</ele>
        <time>2025-10-12T08:15:54Z</time>
      </trkpt>
      <trkpt lat="45.95955" lon="2.85133">
        <ele>716</ele>
        <time>2025-10-12T08:15:57Z</time>
      </trkpt>
      <trkpt lat="45.95973" lon="2.85091">
        <ele>717</ele>
        <time>2025-10-12T08:16:05Z</time>
      </trkpt>
      <trkpt lat="45.95993" lon="2.85008">
        <ele>723</ele>
        <time>2025-10-12T08:16:19Z</time>
      </trkpt>
      <trkpt lat="45.96011" lon="2.8491">
        <ele>728</ele>
        <time>2025-10-12T08:16:35Z</time>
      </trkpt>
      <trkpt lat="45.96021" lon="2.84884">
        <ele>729</ele>
        <time>2025-10-12T08:16:40Z</time>
      </trkpt>
      <trkpt lat="45.96021" lon="2.84868">
        <ele>729</ele>
        <time>2025-10-12T08:16:43Z</time>
      </trkpt>
      <trkpt lat="45.96014" lon="2.84861">
        <ele>729</ele>
        <time>2025-10-12T08:16:45Z</time>
      </trkpt>
      <trkpt lat="45.96002" lon="2.84859">
        <ele>729</ele>
        <time>2025-10-12T08:16:47Z</time>
      </trkpt>
      <trkpt lat="45.95963" lon="2.84855">
        <ele>731</ele>
        <time>2025-10-12T08:16:57Z</time>
      </trkpt>
      <trkpt lat="45.95904" lon="2.84856">
        <ele>732</ele>
        <time>2025-10-12T08:17:10Z</time>
      </trkpt>
      <trkpt lat="45.95801" lon="2.84828">
        <ele>733</ele>
        <time>2025-10-12T08:17:35Z</time>
      </trkpt>
      <trkpt lat="45.9567" lon="2.84829">
        <ele>740</ele>
        <time>2025-10-12T08:18:05Z</time>
      </trkpt>
      <trkpt lat="45.95641" lon="2.84826">
        <ele>741</ele>
        <time>2025-10-12T08:18:12Z</time>
      </trkpt>
      <trkpt lat="45.95592" lon="2.84811">
        <ele>742</ele>
        <time>2025-10-12T08:18:24Z</time>
      </trkpt>
      <trkpt lat="45.95569" lon="2.8478">
        <ele>743</ele>
        <time>2025-10-12T08:18:31Z</time>
      </trkpt>
      <trkpt lat="45.95569" lon="2.84744">
        <ele>743</ele>
        <time>2025-10-12T08:18:37Z</time>
      </trkpt>
      <trkpt lat="45.95562" lon="2.84725">
        <ele>744</ele>
        <time>2025-10-12T08:18:41Z</time>
      </trkpt>
      <trkpt lat="45.95564" lon="2.84708">
        <ele>744</ele>
        <time>2025-10-12T08:18:43Z</time>
      </trkpt>
      <trkpt lat="45.95597" lon="2.84609">
        <ele>745</ele>
        <time>2025-10-12T08:19:01Z</time>
      </trkpt>
      <trkpt lat="45.9569" lon="2.84385">
        <ele>744</ele>
        <time>2025-10-12T08:19:44Z</time>
      </trkpt>
      <trkpt lat="45.95689" lon="2.84344">
        <ele>744</ele>
        <time>2025-10-12T08:19:50Z</time>
      </trkpt>
      <trkpt lat="45.95699" lon="2.84264">
        <ele>743</ele>
        <time>2025-10-12T08:20:03Z</time>
      </trkpt>
      <trkpt lat="45.957" lon="2.84223">
        <ele>743</ele>
        <time>2025-10-12T08:20:10Z</time>
      </trkpt>
      <trkpt lat="45.95691" lon="2.84145">
        <ele>742</ele>
        <time>2025-10-12T08:20:23Z</time>
      </trkpt>
      <trkpt lat="45.95678" lon="2.84095">
        <ele>741</ele>
        <time>2025-10-12T08:20:32Z</time>
      </trkpt>
      <trkpt lat="45.95665" lon="2.83994">
        <ele>740</ele>
        <time>2025-10-12T08:20:48Z</time>
      </trkpt>
      <trkpt lat="45.95648" lon="2.83919">
        <ele>741</ele>
        <time>2025-10-12T08:21:01Z</time>
      </trkpt>
      <trkpt lat="45.95624" lon="2.83862">
        <ele>739</ele>
        <time>2025-10-12T08:21:12Z</time>
      </trkpt>
      <trkpt lat="45.95564" lon="2.83755">
        <ele>737</ele>
        <time>2025-10-12T08:21:34Z</time>
      </trkpt>
      <trkpt lat="45.95523" lon="2.83636">
        <ele>737</ele>
        <time>2025-10-12T08:21:56Z</time>
      </trkpt>
      <trkpt lat="45.95457" lon="2.83647">
        <ele>735</ele>
        <time>2025-10-12T08:22:11Z</time>
      </trkpt>
      <trkpt lat="45.95418" lon="2.83648">
        <ele>734</ele>
        <time>2025-10-12T08:22:20Z</time>
      </trkpt>
      <trkpt lat="45.95275" lon="2.83617">
        <ele>731</ele>
        <time>2025-10-12T08:22:54Z</time>
      </trkpt>
      <trkpt lat="45.95228" lon="2.83616">
        <ele>730</ele>
        <time>2025-10-12T08:23:05Z</time>
      </trkpt>
      <trkpt lat="45.95168" lon="2.83629">
        <ele>728</ele>
        <time>2025-10-12T08:23:19Z</time>
      </trkpt>
      <trkpt lat="45.95028" lon="2.83668">
        <ele>723</ele>
        <time>2025-10-12T08:23:53Z</time>
      </trkpt>
      <trkpt lat="45.94987" lon="2.83685">
        <ele>720</ele>
        <time>2025-10-12T08:24:03Z</time>
      </trkpt>
      <trkpt lat="45.94964" lon="2.83704">
        <ele>720</ele>
        <time>2025-10-12T08:24:09Z</time>
      </trkpt>
      <trkpt lat="45.94946" lon="2.83712">
        <ele>720</ele>
        <time>2025-10-12T08:24:13Z</time>
      </trkpt>
      <trkpt lat="45.94921" lon="2.83708">
        <ele>719</ele>
        <time>2025-10-12T08:24:19Z</time>
      </trkpt>
      <trkpt lat="45.94874" lon="2.83688">
        <ele>717</ele>
        <time>2025-10-12T08:24:31Z</time>
      </trkpt>
      <trkpt lat="45.94865" lon="2.83688">
        <ele>717</ele>
        <time>2025-10-12T08:24:33Z</time>
      </trkpt>
      <trkpt lat="45.9486" lon="2.83701">
        <ele>717</ele>
        <time>2025-10-12T08:24:35Z</time>
      </trkpt>
      <trkpt lat="45.94872" lon="2.83821">
        <ele>722</ele>
        <time>2025-10-12T08:24:55Z</time>
      </trkpt>
      <trkpt lat="45.94909" lon="2.83991">
        <ele>721</ele>
        <time>2025-10-12T08:25:24Z</time>
      </trkpt>
      <trkpt lat="45.94946" lon="2.84229">
        <ele>730</ele>
        <time>2025-10-12T08:26:03Z</time>
      </trkpt>
      <trkpt lat="45.94937" lon="2.84243">
        <ele>730</ele>
        <time>2025-10-12T08:26:06Z</time>
      </trkpt>
      <trkpt lat="45.94866" lon="2.84278">
        <ele>730</ele>
        <time>2025-10-12T08:26:24Z</time>
      </trkpt>
      <trkpt lat="45.94847" lon="2.84284">
        <ele>730</ele>
        <time>2025-10-12T08:26:28Z</time>
      </trkpt>
      <trkpt lat="45.9483" lon="2.84282">
        <ele>729</ele>
        <time>2025-10-12T08:26:32Z</time>
      </trkpt>
      <trkpt lat="45.94812" lon="2.84274">
        <ele>731</ele>
        <time>2025-10-12T08:26:37Z</time>
      </trkpt>
      <trkpt lat="45.94778" lon="2.84246">
        <ele>733</ele>
        <time>2025-10-12T08:26:46Z</time>
      </trkpt>
      <trkpt lat="45.9469" lon="2.84216">
        <ele>735</ele>
        <time>2025-10-12T08:27:07Z</time>
      </trkpt>
      <trkpt lat="45.94644" lon="2.84211">
        <ele>736</ele>
        <time>2025-10-12T08:27:18Z</time>
      </trkpt>
      <trkpt lat="45.94606" lon="2.84182">
        <ele>735</ele>
        <time>2025-10-12T08:27:28Z</time>
      </trkpt>
      <trkpt lat="45.94585" lon="2.84171">
        <ele>733</ele>
        <time>2025-10-12T08:27:33Z</time>
      </trkpt>
      <trkpt lat="45.94513" lon="2.84172">
        <ele>735</ele>
        <time>2025-10-12T08:27:50Z</time>
      </trkpt>
      <trkpt lat="45.94424" lon="2.84184">
        <ele>736</ele>
        <time>2025-10-12T08:28:11Z</time>
      </trkpt>
      <trkpt lat="45.9441" lon="2.84181">
        <ele>736</ele>
        <time>2025-10-12T08:28:14Z</time>
      </trkpt>
      <trkpt lat="45.94406" lon="2.84158">
        <ele>735</ele>
        <time>2025-10-12T08:28:18Z</time>
      </trkpt>
      <trkpt lat="45.94406" lon="2.84069">
        <ele>731</ele>
        <time>2025-10-12T08:28:32Z</time>
      </trkpt>
      <trkpt lat="45.94422" lon="2.83952">
        <ele>728</ele>
        <time>2025-10-12T08:28:52Z</time>
      </trkpt>
      <trkpt lat="45.94423" lon="2.83911">
        <ele>728</ele>
        <time>2025-10-12T08:28:58Z</time>
      </trkpt>
      <trkpt lat="45.94414" lon="2.83886">
        <ele>729</ele>
        <time>2025-10-12T08:29:03Z</time>
      </trkpt>
      <trkpt lat="45.944" lon="2.83804">
        <ele>729</ele>
        <time>2025-10-12T08:29:17Z</time>
      </trkpt>
      <trkpt lat="45.94394" lon="2.8371">
        <ele>728</ele>
        <time>2025-10-12T08:29:32Z</time>
      </trkpt>
      <trkpt lat="45.94394" lon="2.83628">
        <ele>725</ele>
        <time>2025-10-12T08:29:45Z</time>
      </trkpt>
      <trkpt lat="45.94341" lon="2.83389">
        <ele>724</ele>
        <time>2025-10-12T08:30:26Z</time>
      </trkpt>
      <trkpt lat="45.94335" lon="2.83379">
        <ele>724</ele>
        <time>2025-10-12T08:30:28Z</time>
      </trkpt>
      <trkpt lat="45.94327" lon="2.83378">
        <ele>724</ele>
        <time>2025-10-12T08:30:30Z</time>
      </trkpt>
      <trkpt lat="45.94234" lon="2.83484">
        <ele>724</ele>
        <time>2025-10-12T08:30:58Z</time>
      </trkpt>
      <trkpt lat="45.94177" lon="2.83596">
        <ele>727</ele>
        <time>2025-10-12T08:31:20Z</time>
      </trkpt>
      <trkpt lat="45.94168" lon="2.83601">
        <ele>727</ele>
        <time>2025-10-12T08:31:23Z</time>
      </trkpt>
      <trkpt lat="45.94151" lon="2.83602">
        <ele>727</ele>
        <time>2025-10-12T08:31:27Z</time>
      </trkpt>
      <trkpt lat="45.94089" lon="2.83592">
        <ele>730</ele>
        <time>2025-10-12T08:31:41Z</time>
      </trkpt>
      <trkpt lat="45.94079" lon="2.83599">
        <ele>730</ele>
        <time>2025-10-12T08:31:44Z</time>
      </trkpt>
      <trkpt lat="45.94043" lon="2.83652">
        <ele>731</ele>
        <time>2025-10-12T08:31:56Z</time>
      </trkpt>
      <trkpt lat="45.94021" lon="2.83702">
        <ele>732</ele>
        <time>2025-10-12T08:32:05Z</time>
      </trkpt>
      <trkpt lat="45.93946" lon="2.83825">
        <ele>733</ele>
        <time>2025-10-12T08:32:32Z</time>
      </trkpt>
      <trkpt lat="45.93947" lon="2.8384">
        <ele>733</ele>
        <time>2025-10-12T08:32:34Z</time>
      </trkpt>
      <trkpt lat="45.9402" lon="2.83895">
        <ele>734</ele>
        <time>2025-10-12T08:32:54Z</time>
      </trkpt>
      <trkpt lat="45.94053" lon="2.83915">
        <ele>733</ele>
        <time>2025-10-12T08:33:02Z</time>
      </trkpt>
      <trkpt lat="45.94063" lon="2.83923">
        <ele>733</ele>
        <time>2025-10-12T08:33:05Z</time>
      </trkpt>
      <trkpt lat="45.94069" lon="2.83936">
        <ele>733</ele>
        <time>2025-10-12T08:33:07Z</time>
      </trkpt>
      <trkpt lat="45.94034" lon="2.84033">
        <ele>733</ele>
        <time>2025-10-12T08:33:25Z</time>
      </trkpt>
      <trkpt lat="45.93997" lon="2.84105">
        <ele>734</ele>
        <time>2025-10-12T08:33:40Z</time>
      </trkpt>
      <trkpt lat="45.9399" lon="2.84127">
        <ele>734</ele>
        <time>2025-10-12T08:33:43Z</time>
      </trkpt>
      <trkpt lat="45.93987" lon="2.84408">
        <ele>743</ele>
        <time>2025-10-12T08:34:29Z</time>
      </trkpt>
      <trkpt lat="45.93991" lon="2.8441">
        <ele>743</ele>
        <time>2025-10-12T08:34:30Z</time>
      </trkpt>
      <trkpt lat="45.93989" lon="2.84352">
        <ele>743</ele>
        <time>2025-10-12T08:34:40Z</time>
      </trkpt>
      <trkpt lat="45.93984" lon="2.84346">
        <ele>743</ele>
        <time>2025-10-12T08:34:41Z</time>
      </trkpt>
      <trkpt lat="45.93967" lon="2.8434">
        <ele>743</ele>
        <time>2025-10-12T08:34:45Z</time>
      </trkpt>
      <trkpt lat="45.93964" lon="2.84342">
        <ele>743</ele>
        <time>2025-10-12T08:34:46Z</time>
      </trkpt>
      <trkpt lat="45.93966" lon="2.84356">
        <ele>743</ele>
        <time>2025-10-12T08:34:48Z</time>
      </trkpt>
      <trkpt lat="45.9394" lon="2.84366">
        <ele>744</ele>
        <time>2025-10-12T08:34:55Z</time>
      </trkpt>
      <trkpt lat="45.93921" lon="2.84387">
        <ele>745</ele>
        <time>2025-10-12T08:35:00Z</time>
      </trkpt>
      <trkpt lat="45.93915" lon="2.84402">
        <ele>746</ele>
        <time>2025-10-12T08:35:03Z</time>
      </trkpt>
      <trkpt lat="45.93893" lon="2.84433">
        <ele>744</ele>
        <time>2025-10-12T08:35:10Z</time>
      </trkpt>
      <trkpt lat="45.93883" lon="2.84467">
        <ele>742</ele>
        <time>2025-10-12T08:35:16Z</time>
      </trkpt>
      <trkpt lat="45.93876" lon="2.84474">
        <ele>742</ele>
        <time>2025-10-12T08:35:18Z</time>
      </trkpt>
      <trkpt lat="45.9381" lon="2.84509">
        <ele>740</ele>
        <time>2025-10-12T08:35:35Z</time>
      </trkpt>
      <trkpt lat="45.93808" lon="2.84568">
        <ele>740</ele>
        <time>2025-10-12T08:35:44Z</time>
      </trkpt>
      <trkpt lat="45.93817" lon="2.84614">
        <ele>740</ele>
        <time>2025-10-12T08:35:52Z</time>
      </trkpt>
      <trkpt lat="45.93844" lon="2.84685">
        <ele>741</ele>
        <time>2025-10-12T08:36:05Z</time>
      </trkpt>
      <trkpt lat="45.93875" lon="2.84746">
        <ele>741</ele>
        <time>2025-10-12T08:36:17Z</time>
      </trkpt>
      <trkpt lat="45.9389" lon="2.8481">
        <ele>742</ele>
        <time>2025-10-12T08:36:28Z</time>
      </trkpt>
      <trkpt lat="45.93888" lon="2.84842">
        <ele>744</ele>
        <time>2025-10-12T08:36:33Z</time>
      </trkpt>
      <trkpt lat="45.93873" lon="2.84912">
        <ele>748</ele>
        <time>2025-10-12T08:36:45Z</time>
      </trkpt>
      <trkpt lat="45.93871" lon="2.85038">
        <ele>750</ele>
        <time>2025-10-12T08:37:06Z</time>
      </trkpt>
      <trkpt lat="45.93904" lon="2.85207">
        <ele>746</ele>
        <time>2025-10-12T08:37:34Z</time>
      </trkpt>
      <trkpt lat="45.93913" lon="2.85335">
        <ele>745</ele>
        <time>2025-10-12T08:37:55Z</time>
      </trkpt>
      <trkpt lat="45.93942" lon="2.85433">
        <ele>741</ele>
        <time>2025-10-12T08:38:13Z</time>
      </trkpt>
      <trkpt lat="45.93946" lon="2.85506">
        <ele>740</ele>
        <time>2025-10-12T08:38:24Z</time>
      </trkpt>
      <trkpt lat="45.93938" lon="2.85563">
        <ele>742</ele>
        <time>2025-10-12T08:38:34Z</time>
      </trkpt>
      <trkpt lat="45.93925" lon="2.85609">
        <ele>745</ele>
        <time>2025-10-12T08:38:42Z</time>
      </trkpt>
      <trkpt lat="45.93897" lon="2.8575">
        <ele>748</ele>
        <time>2025-10-12T08:39:06Z</time>
      </trkpt>
      <trkpt lat="45.93867" lon="2.85861">
        <ele>745</ele>
        <time>2025-10-12T08:39:25Z</time>
      </trkpt>
      <trkpt lat="45.93841" lon="2.85932">
        <ele>743</ele>
        <time>2025-10-12T08:39:38Z</time>
      </trkpt>
      <trkpt lat="45.93801" lon="2.86007">
        <ele>741</ele>
        <time>2025-10-12T08:39:53Z</time>
      </trkpt>
      <trkpt lat="45.93789" lon="2.86053">
        <ele>742</ele>
        <time>2025-10-12T08:40:01Z</time>
      </trkpt>
      <trkpt lat="45.93787" lon="2.86086">
        <ele>742</ele>
        <time>2025-10-12T08:40:07Z</time>
      </trkpt>
      <trkpt lat="45.93781" lon="2.86102">
        <ele>742</ele>
        <time>2025-10-12T08:40:10Z</time>
      </trkpt>
      <trkpt lat="45.93768" lon="2.86121">
        <ele>742</ele>
        <time>2025-10-12T08:40:14Z</time>
      </trkpt>
      <trkpt lat="45.93738" lon="2.86142">
        <ele>742</ele>
        <time>2025-10-12T08:40:22Z</time>
      </trkpt>
      <trkpt lat="45.93737" lon="2.86147">
        <ele>742</ele>
        <time>2025-10-12T08:40:23Z</time>
      </trkpt>
      <trkpt lat="45.93765" lon="2.86376">
        <ele>742</ele>
        <time>2025-10-12T08:41:01Z</time>
      </trkpt>
      <trkpt lat="45.93777" lon="2.86507">
        <ele>744</ele>
        <time>2025-10-12T08:41:22Z</time>
      </trkpt>
      <trkpt lat="45.93774" lon="2.86571">
        <ele>744</ele>
        <time>2025-10-12T08:41:32Z</time>
      </trkpt>
      <trkpt lat="45.93778" lon="2.8658">
        <ele>744</ele>
        <time>2025-10-12T08:41:34Z</time>
      </trkpt>
      <trkpt lat="45.93814" lon="2.86609">
        <ele>745</ele>
        <time>2025-10-12T08:41:44Z</time>
      </trkpt>
      <trkpt lat="45.93866" lon="2.86666">
        <ele>746</ele>
        <time>2025-10-12T08:41:59Z</time>
      </trkpt>
      <trkpt lat="45.93967" lon="2.86764">
        <ele>747</ele>
        <time>2025-10-12T08:42:27Z</time>
      </trkpt>
      <trkpt lat="45.94049" lon="2.86858">
        <ele>747</ele>
        <time>2025-10-12T08:42:52Z</time>
      </trkpt>
      <trkpt lat="45.94068" lon="2.86866">
        <ele>747</ele>
        <time>2025-10-12T08:42:57Z</time>
      </trkpt>
      <trkpt lat="45.94108" lon="2.86866">
        <ele>748</ele>
        <time>2025-10-12T08:43:06Z</time>
      </trkpt>
      <trkpt lat="45.94286" lon="2.869">
        <ele>757</ele>
        <time>2025-10-12T08:43:48Z</time>
      </trkpt>
      <trkpt lat="45.94318" lon="2.86912">
        <ele>759</ele>
        <time>2025-10-12T08:43:56Z</time>
      </trkpt>
      <trkpt lat="45.94404" lon="2.86958">
        <ele>762</ele>
        <time>2025-10-12T08:44:17Z</time>
      </trkpt>
      <trkpt lat="45.94485" lon="2.86975">
        <ele>760</ele>
        <time>2025-10-12T08:44:36Z</time>
      </trkpt>
      <trkpt lat="45.94513" lon="2.86986">
        <ele>760</ele>
        <time>2025-10-12T08:44:43Z</time>
      </trkpt>
      <trkpt lat="45.94564" lon="2.87021">
        <ele>759</ele>
        <time>2025-10-12T08:44:56Z</time>
      </trkpt>
      <trkpt lat="45.94602" lon="2.87092">
        <ele>755</ele>
        <time>2025-10-12T08:45:11Z</time>
      </trkpt>
      <trkpt lat="45.94636" lon="2.87137">
        <ele>753</ele>
        <time>2025-10-12T08:45:21Z</time>
      </trkpt>
      <trkpt lat="45.94654" lon="2.87152">
        <ele>753</ele>
        <time>2025-10-12T08:45:26Z</time>
      </trkpt>
      <trkpt lat="45.94714" lon="2.87177">
        <ele>754</ele>
        <time>2025-10-12T08:45:41Z</time>
      </trkpt>
      <trkpt lat="45.94736" lon="2.87191">
        <ele>754</ele>
        <time>2025-10-12T08:45:47Z</time>
      </trkpt>
      <trkpt lat="45.9476" lon="2.87218">
        <ele>754</ele>
        <time>2025-10-12T08:45:54Z</time>
      </trkpt>
      <trkpt lat="45.94802" lon="2.87284">
        <ele>754</ele>
        <time>2025-10-12T08:46:08Z</time>
      </trkpt>
      <trkpt lat="45.94829" lon="2.87309">
        <ele>755</ele>
        <time>2025-10-12T08:46:16Z</time>
      </trkpt>
      <trkpt lat="45.94946" lon="2.87394">
        <ele>753</ele>
        <time>2025-10-12T08:46:46Z</time>
      </trkpt>
      <trkpt lat="45.95026" lon="2.87446">
        <ele>752</ele>
        <time>2025-10-12T08:47:07Z</time>
      </trkpt>
      <trkpt lat="45.95073" lon="2.87471">
        <ele>752</ele>
        <time>2025-10-12T08:47:18Z</time>
      </trkpt>
      <trkpt lat="45.95139" lon="2.87492">
        <ele>753</ele>
        <time>2025-10-12T08:47:34Z</time>
      </trkpt>
      <trkpt lat="45.95183" lon="2.87497">
        <ele>754</ele>
        <time>2025-10-12T08:47:45Z</time>
      </trkpt>
      <trkpt lat="45.95201" lon="2.87504">
        <ele>754</ele>
        <time>2025-10-12T08:47:49Z</time>
      </trkpt>
      <trkpt lat="45.95347" lon="2.87635">
        <ele>754</ele>
        <time>2025-10-12T08:48:29Z</time>
      </trkpt>
      <trkpt lat="45.95373" lon="2.8765">
        <ele>753</ele>
        <time>2025-10-12T08:48:36Z</time>
      </trkpt>
      <trkpt lat="45.95471" lon="2.87691">
        <ele>751</ele>
        <time>2025-10-12T08:48:59Z</time>
      </trkpt>
      <trkpt lat="45.95475" lon="2.87719">
        <ele>751</ele>
        <time>2025-10-12T08:49:04Z</time>
      </trkpt>
      <trkpt lat="45.95458" lon="2.87961">
        <ele>744</ele>
        <time>2025-10-12T08:49:44Z</time>
      </trkpt>
      <trkpt lat="45.95447" lon="2.88215">
        <ele>730</ele>
        <time>2025-10-12T08:50:25Z</time>
      </trkpt>
      <trkpt lat="45.95438" lon="2.88246">
        <ele>728</ele>
        <time>2025-10-12T08:50:30Z</time>
      </trkpt>
      <trkpt lat="45.95409" lon="2.88292">
        <ele>725</ele>
        <time>2025-10-12T08:50:40Z</time>
      </trkpt>
      <trkpt lat="45.95404" lon="2.88315">
        <ele>724</ele>
        <time>2025-10-12T08:50:44Z</time>
      </trkpt>
      <trkpt lat="45.95471" lon="2.88342">
        <ele>724</ele>
        <time>2025-10-12T08:51:01Z</time>
      </trkpt>
      <trkpt lat="45.95495" lon="2.88363">
        <ele>724</ele>
        <time>2025-10-12T08:51:07Z</time>
      </trkpt>
      <trkpt lat="45.95501" lon="2.88375">
        <ele>724</ele>
        <time>2025-10-12T08:51:10Z</time>
      </trkpt>
      <trkpt lat="45.95508" lon="2.88409">
        <ele>724</ele>
        <time>2025-10-12T08:51:15Z</time>
      </trkpt>
      <trkpt lat="45.95508" lon="2.88479">
        <ele>724</ele>
        <time>2025-10-12T08:51:27Z</time>
      </trkpt>
      <trkpt lat="45.95524" lon="2.88573">
        <ele>725</ele>
        <time>2025-10-12T08:51:42Z</time>
      </trkpt>
      <trkpt lat="45.95533" lon="2.88577">
        <ele>725</ele>
        <time>2025-10-12T08:51:45Z</time>
      </trkpt>
      <trkpt lat="45.95573" lon="2.88579">
        <ele>727</ele>
        <time>2025-10-12T08:51:54Z</time>
      </trkpt>
      <trkpt lat="45.95628" lon="2.88599">
        <ele>727</ele>
        <time>2025-10-12T08:52:07Z</time>
      </trkpt>
      <trkpt lat="45.95711" lon="2.88576">
        <ele>730</ele>
        <time>2025-10-12T08:52:27Z</time>
      </trkpt>
      <trkpt lat="45.95757" lon="2.88577">
        <ele>732</ele>
        <time>2025-10-12T08:52:38Z</time>
      </trkpt>
      <trkpt lat="45.95814" lon="2.8856">
        <ele>734</ele>
        <time>2025-10-12T08:52:51Z</time>
      </trkpt>
      <trkpt lat="45.95897" lon="2.88559">
        <ele>736</ele>
        <time>2025-10-12T08:53:11Z</time>
      </trkpt>
      <trkpt lat="45.95952" lon="2.88546">
        <ele>736</ele>
        <time>2025-10-12T08:53:24Z</time>
      </trkpt>
      <trkpt lat="45.95988" lon="2.88542">
        <ele>736</ele>
        <time>2025-10-12T08:53:32Z</time>
      </trkpt>
      <trkpt lat="45.96027" lon="2.88551">
        <ele>734</ele>
        <time>2025-10-12T08:53:41Z</time>
      </trkpt>
      <trkpt lat="45.9609" lon="2.88581">
        <ele>731</ele>
        <time>2025-10-12T08:53:57Z</time>
      </trkpt>
      <trkpt lat="45.96091" lon="2.88583">
        <ele>731</ele>
        <time>2025-10-12T08:53:57Z</time>
      </trkpt>
      <trkpt lat="45.96067" lon="2.88616">
        <ele>732</ele>
        <time>2025-10-12T08:54:05Z</time>
      </trkpt>
      <trkpt lat="45.96023" lon="2.88677">
        <ele>735</ele>
        <time>2025-10-12T08:54:19Z</time>
      </trkpt>
      <trkpt lat="45.95995" lon="2.88725">
        <ele>732</ele>
        <time>2025-10-12T08:54:29Z</time>
      </trkpt>
      <trkpt lat="45.95952" lon="2.88812">
        <ele>721</ele>
        <time>2025-10-12T08:54:47Z</time>
      </trkpt>
      <trkpt lat="45.95949" lon="2.88829">
        <ele>719</ele>
        <time>2025-10-12T08:54:50Z</time>
      </trkpt>
      <trkpt lat="45.95952" lon="2.88854">
        <ele>716</ele>
        <time>2025-10-12T08:54:54Z</time>
      </trkpt>
      <trkpt lat="45.95955" lon="2.88859">
        <ele>716</ele>
        <time>2025-10-12T08:54:55Z</time>
      </trkpt>
      <trkpt lat="45.95962" lon="2.88859">
        <ele>716</ele>
        <time>2025-10-12T08:54:56Z</time>
      </trkpt>
      <trkpt lat="45.96009" lon="2.88825">
        <ele>719</ele>
        <time>2025-10-12T08:55:09Z</time>
      </trkpt>
      <trkpt lat="45.96028" lon="2.88816">
        <ele>718</ele>
        <time>2025-10-12T08:55:13Z</time>
      </trkpt>
      <trkpt lat="45.96042" lon="2.88815">
        <ele>718</ele>
        <time>2025-10-12T08:55:17Z</time>
      </trkpt>
      <trkpt lat="45.96174" lon="2.88834">
        <ele>710</ele>
        <time>2025-10-12T08:55:48Z</time>
      </trkpt>
      <trkpt lat="45.96186" lon="2.8883">
        <ele>711</ele>
        <time>2025-10-12T08:55:51Z</time>
      </trkpt>
      <trkpt lat="45.96204" lon="2.88814">
        <ele>715</ele>
        <time>2025-10-12T08:55:55Z</time>
      </trkpt>
      <trkpt lat="45.96227" lon="2.88835">
        <ele>715</ele>
        <time>2025-10-12T08:56:02Z</time>
      </trkpt>
      <trkpt lat="45.96235" lon="2.88855">
        <ele>715</ele>
        <time>2025-10-12T08:56:06Z</time>
      </trkpt>
      <trkpt lat="45.96247" lon="2.8892">
        <ele>712</ele>
        <time>2025-10-12T08:56:17Z</time>
      </trkpt>
      <trkpt lat="45.96253" lon="2.88926">
        <ele>713</ele>
        <time>2025-10-12T08:56:18Z</time>
      </trkpt>
      <trkpt lat="45.96264" lon="2.88919">
        <ele>714</ele>
        <time>2025-10-12T08:56:21Z</time>
      </trkpt>
      <trkpt lat="45.96277" lon="2.88899">
        <ele>717</ele>
        <time>2025-10-12T08:56:25Z</time>
      </trkpt>
      <trkpt lat="45.96329" lon="2.8884">
        <ele>729</ele>
        <time>2025-10-12T08:56:41Z</time>
      </trkpt>
      <trkpt lat="45.96481" lon="2.88693">
        <ele>736</ele>
        <time>2025-10-12T08:57:24Z</time>
      </trkpt>
      <trkpt lat="45.96487" lon="2.88684">
        <ele>737</ele>
        <time>2025-10-12T08:57:26Z</time>
      </trkpt>
      <trkpt lat="45.96491" lon="2.88666">
        <ele>738</ele>
        <time>2025-10-12T08:57:29Z</time>
      </trkpt>
      <trkpt lat="45.96599" lon="2.88711">
        <ele>738</ele>
        <time>2025-10-12T08:57:55Z</time>
      </trkpt>
      <trkpt lat="45.96627" lon="2.88725">
        <ele>738</ele>
        <time>2025-10-12T08:58:02Z</time>
      </trkpt>
      <trkpt lat="45.96676" lon="2.88768">
        <ele>740</ele>
        <time>2025-10-12T08:58:15Z</time>
      </trkpt>
      <trkpt lat="45.96756" lon="2.88885">
        <ele>744</ele>
        <time>2025-10-12T08:58:42Z</time>
      </trkpt>
      <trkpt lat="45.96822" lon="2.88934">
        <ele>748</ele>
        <time>2025-10-12T08:58:59Z</time>
      </trkpt>
      <trkpt lat="45.96871" lon="2.88995">
        <ele>747</ele>
        <time>2025-10-12T08:59:15Z</time>
      </trkpt>
      <trkpt lat="45.96932" lon="2.89062">
        <ele>747</ele>
        <time>2025-10-12T08:59:32Z</time>
      </trkpt>
      <trkpt lat="45.97019" lon="2.8921">
        <ele>744</ele>
        <time>2025-10-12T09:00:04Z</time>
      </trkpt>
      <trkpt lat="45.97035" lon="2.89223">
        <ele>745</ele>
        <time>2025-10-12T09:00:08Z</time>
      </trkpt>
      <trkpt lat="45.97051" lon="2.8923">
        <ele>746</ele>
        <time>2025-10-12T09:00:12Z</time>
      </trkpt>
      <trkpt lat="45.97059" lon="2.89223">
        <ele>746</ele>
        <time>2025-10-12T09:00:14Z</time>
      </trkpt>
      <trkpt lat="45.97061" lon="2.89209">
        <ele>747</ele>
        <time>2025-10-12T09:00:17Z</time>
      </trkpt>
      <trkpt lat="45.97027" lon="2.89114">
        <ele>747</ele>
        <time>2025-10-12T09:00:34Z</time>
      </trkpt>
      <trkpt lat="45.97017" lon="2.89063">
        <ele>748</ele>
        <time>2025-10-12T09:00:43Z</time>
      </trkpt>
      <trkpt lat="45.97012" lon="2.88903">
        <ele>749</ele>
        <time>2025-10-12T09:01:09Z</time>
      </trkpt>
      <trkpt lat="45.97021" lon="2.88803">
        <ele>747</ele>
        <time>2025-10-12T09:01:25Z</time>
      </trkpt>
      <trkpt lat="45.97051" lon="2.88643">
        <ele>745</ele>
        <time>2025-10-12T09:01:52Z</time>
      </trkpt>
      <trkpt lat="45.97054" lon="2.88606">
        <ele>743</ele>
        <time>2025-10-12T09:01:58Z</time>
      </trkpt>
      <trkpt lat="45.97061" lon="2.88375">
        <ele>736</ele>
        <time>2025-10-12T09:02:35Z</time>
      </trkpt>
      <trkpt lat="45.97059" lon="2.88315">
        <ele>735</ele>
        <time>2025-10-12T09:02:45Z</time>
      </trkpt>
      <trkpt lat="45.97041" lon="2.88202">
        <ele>732</ele>
        <time>2025-10-12T09:03:04Z</time>
      </trkpt>
      <trkpt lat="45.97022" lon="2.88119">
        <ele>733</ele>
        <time>2025-10-12T09:03:18Z</time>
      </trkpt>
      <trkpt lat="45.96994" lon="2.88072">
        <ele>734</ele>
        <time>2025-10-12T09:03:28Z</time>
      </trkpt>
      <trkpt lat="45.96965" lon="2.88025">
        <ele>732</ele>
        <time>2025-10-12T09:03:38Z</time>
      </trkpt>
      <trkpt lat="45.96946" lon="2.87991">
        <ele>731</ele>
        <time>2025-10-12T09:03:45Z</time>
      </trkpt>
      <trkpt lat="45.96932" lon="2.87957">
        <ele>730</ele>
        <time>2025-10-12T09:03:52Z</time>
      </trkpt>
      <trkpt lat="45.96926" lon="2.87942">
        <ele>729</ele>
        <time>2025-10-12T09:03:55Z</time>
      </trkpt>
      <trkpt lat="45.96913" lon="2.87917">
        <ele>728</ele>
        <time>2025-10-12T09:04:00Z</time>
      </trkpt>
      <trkpt lat="45.96886" lon="2.87877">
        <ele>725</ele>
        <time>2025-10-12T09:04:09Z</time>
      </trkpt>
    </trkseg>
  </trk>
</gpx>